createdAt,value
2023-05-22T00:02:14.563Z,24.60
2023-05-22T00:04:43.411Z,24.60
2023-05-22T00:07:11.870Z,24.60
2023-05-22T00:09:40.590Z,24.60
2023-05-22T00:12:09.778Z,24.60
2023-05-22T00:14:38.181Z,24.60
2023-05-22T01:02:59.479Z,24.50
2023-05-22T01:05:27.990Z,24.50
2023-05-22T01:07:57.182Z,24.50
2023-05-22T01:10:25.760Z,24.50
2023-05-22T01:13:04.253Z,24.50
2023-05-22T01:47:08.276Z,24.50
2023-05-22T01:49:38.103Z,24.50
2023-05-22T01:52:18.626Z,24.50
2023-05-22T01:54:58.354Z,24.50
2023-05-22T01:57:32.245Z,24.50
2023-05-22T02:46:43.741Z,24.40
2023-05-22T02:49:12.449Z,24.40
2023-05-22T02:51:41.004Z,24.40
2023-05-22T02:54:09.429Z,24.40
2023-05-22T02:56:37.834Z,24.40
2023-05-22T02:59:06.138Z,24.40
2023-05-22T03:48:17.393Z,24.40
2023-05-22T03:50:46.691Z,24.40
2023-05-22T03:53:15.058Z,24.40
2023-05-22T03:55:43.600Z,24.40
2023-05-22T03:58:12.117Z,24.40
2023-05-22T04:48:05.455Z,24.30
2023-05-22T04:50:38.743Z,24.30
2023-05-22T04:53:07.863Z,24.30
2023-05-22T04:55:36.989Z,24.30
2023-05-22T04:58:06.385Z,24.30
2023-05-22T05:00:35.333Z,24.30
2023-05-22T05:03:08.060Z,24.30
2023-05-22T05:05:36.801Z,24.30
2023-05-22T05:08:05.643Z,24.30
2023-05-22T05:10:34.503Z,24.30
2023-05-22T05:13:03.416Z,24.30
2023-05-22T05:15:37.466Z,24.30
2023-05-22T05:18:07.501Z,24.30
2023-05-22T05:20:35.913Z,24.30
2023-05-22T05:23:04.479Z,24.30
2023-05-22T05:25:33.089Z,24.40
2023-05-22T05:28:01.893Z,24.40
2023-05-22T05:30:31.875Z,24.50
2023-05-22T05:33:20.228Z,24.50
2023-05-22T05:36:07.112Z,24.50
2023-05-22T05:38:36.976Z,24.50
2023-05-22T05:41:06.452Z,24.40
2023-05-22T05:43:37.267Z,24.40
2023-05-22T05:46:09.181Z,24.40
2023-05-22T05:48:39.139Z,24.40
2023-05-22T05:51:07.799Z,24.40
2023-05-22T05:53:40.714Z,24.40
2023-05-22T05:56:10.011Z,24.40
2023-05-22T05:58:39.573Z,24.40
2023-05-22T06:01:28.104Z,24.40
2023-05-22T06:04:02.921Z,24.40
2023-05-22T06:06:36.068Z,24.40
2023-05-22T06:09:16.358Z,24.40
2023-05-22T06:12:03.043Z,24.30
2023-05-22T06:14:31.769Z,24.30
2023-05-22T06:17:00.309Z,24.30
2023-05-22T06:19:30.379Z,24.30
2023-05-22T06:21:58.960Z,24.30
2023-05-22T06:24:27.389Z,24.30
2023-05-22T06:26:56.331Z,24.30
2023-05-22T06:29:24.844Z,24.30
2023-05-22T06:31:55.566Z,24.30
2023-05-22T06:34:24.322Z,24.30
2023-05-22T06:36:54.468Z,24.30
2023-05-22T06:39:26.840Z,24.30
2023-05-22T06:42:12.132Z,24.30
2023-05-22T06:45:10.842Z,24.30
2023-05-22T06:47:54.050Z,24.30
2023-05-22T06:50:23.351Z,24.30
2023-05-22T06:52:53.847Z,24.30
2023-05-22T06:55:22.335Z,24.30
2023-05-22T06:58:02.124Z,24.30
2023-05-22T07:00:30.751Z,24.30
2023-05-22T07:03:08.936Z,24.30
2023-05-22T07:05:47.340Z,24.30
2023-05-22T07:08:17.270Z,24.30
2023-05-22T07:10:46.938Z,24.30
2023-05-22T07:13:15.392Z,24.30
2023-05-22T07:15:46.490Z,24.30
2023-05-22T07:18:15.189Z,24.30
2023-05-22T07:20:45.470Z,24.30
2023-05-22T07:23:18.693Z,24.30
2023-05-22T07:25:47.208Z,24.30
2023-05-22T07:28:17.434Z,24.30
2023-05-22T07:31:06.735Z,24.30
2023-05-22T07:33:35.270Z,24.30
2023-05-22T07:36:03.707Z,24.30
2023-05-22T07:38:33.886Z,24.30
2023-05-22T07:41:05.130Z,24.30
2023-05-22T07:43:35.269Z,24.30
2023-05-22T07:46:03.829Z,24.40
2023-05-22T07:48:38.159Z,24.40
2023-05-22T07:51:08.897Z,24.40
2023-05-22T07:53:39.016Z,24.40
2023-05-22T07:56:08.821Z,24.40
2023-05-22T07:58:37.814Z,24.40
2023-05-22T08:01:08.668Z,24.40
2023-05-22T08:03:38.011Z,24.40
2023-05-22T08:06:06.837Z,24.40
2023-05-22T08:08:35.470Z,24.30
2023-05-22T08:11:05.898Z,24.40
2023-05-22T08:13:34.523Z,24.30
2023-05-22T08:16:02.860Z,24.30
2023-05-22T08:18:31.309Z,24.30
2023-05-22T08:21:00.712Z,24.30
2023-05-22T08:23:29.988Z,24.30
2023-05-22T08:25:59.160Z,24.30
2023-05-22T08:28:28.945Z,24.30
2023-05-22T08:30:57.287Z,24.40
2023-05-22T08:33:26.854Z,24.40
2023-05-22T08:35:55.428Z,24.40
2023-05-22T08:38:23.818Z,24.40
2023-05-22T08:40:54.698Z,24.40
2023-05-22T08:43:23.581Z,24.40
2023-05-22T08:46:00.250Z,24.40
2023-05-22T08:48:32.499Z,24.40
2023-05-22T08:51:08.777Z,24.40
2023-05-22T08:53:39.819Z,24.50
2023-05-22T08:56:09.546Z,24.40
2023-05-22T08:58:38.940Z,24.40
2023-05-22T09:01:09.800Z,24.40
2023-05-22T09:03:38.549Z,24.40
2023-05-22T09:06:10.336Z,24.50
2023-05-22T09:08:39.548Z,24.40
2023-05-22T09:11:07.952Z,24.40
2023-05-22T09:13:36.421Z,24.40
2023-05-22T09:16:13.566Z,24.40
2023-05-22T09:18:43.575Z,24.40
2023-05-22T09:21:28.721Z,24.40
2023-05-22T09:24:02.086Z,24.40
2023-05-22T09:26:32.862Z,24.40
2023-05-22T09:29:01.824Z,24.40
2023-05-22T09:31:32.008Z,24.40
2023-05-22T09:34:00.486Z,24.40
2023-05-22T09:36:35.282Z,24.40
2023-05-22T09:39:05.623Z,24.40
2023-05-22T09:41:39.150Z,24.40
2023-05-22T09:44:14.930Z,24.40
2023-05-22T09:46:48.284Z,24.40
2023-05-22T09:49:17.691Z,24.40
2023-05-22T09:51:48.830Z,24.40
2023-05-22T09:54:19.741Z,24.40
2023-05-22T09:56:51.629Z,24.40
2023-05-22T09:59:23.692Z,24.40
2023-05-22T10:01:54.704Z,24.40
2023-05-22T10:04:24.505Z,24.40
2023-05-22T10:06:55.018Z,24.40
2023-05-22T10:09:30.688Z,24.40
2023-05-22T10:12:05.148Z,24.40
2023-05-22T10:14:34.110Z,24.40
2023-05-22T10:17:06.602Z,24.40
2023-05-22T10:19:38.398Z,24.40
2023-05-22T10:22:09.457Z,24.40
2023-05-22T10:24:38.184Z,24.40
2023-05-22T10:27:07.452Z,24.40
2023-05-22T10:29:46.045Z,24.40
2023-05-22T10:32:30.240Z,24.40
2023-05-22T10:35:14.950Z,24.40
2023-05-22T10:37:53.019Z,24.40
2023-05-22T10:40:29.197Z,24.40
2023-05-22T10:43:02.135Z,24.40
2023-05-22T10:45:31.843Z,24.40
2023-05-22T10:48:09.432Z,24.40
2023-05-22T10:50:38.795Z,24.40
2023-05-22T10:53:24.606Z,24.40
2023-05-22T10:55:54.438Z,24.40
2023-05-22T10:58:28.584Z,24.40
2023-05-22T11:01:13.210Z,24.40
2023-05-22T11:03:58.066Z,24.40
2023-05-22T11:06:38.878Z,24.40
2023-05-22T11:09:28.047Z,24.40
2023-05-22T11:12:25.728Z,24.40
2023-05-22T11:14:56.320Z,24.40
2023-05-22T11:17:27.646Z,24.40
2023-05-22T11:20:06.252Z,24.40
2023-05-22T11:22:38.783Z,24.40
2023-05-22T11:25:11.099Z,24.40
2023-05-22T11:27:41.660Z,24.40
2023-05-22T11:30:11.667Z,24.40
2023-05-22T11:32:44.467Z,24.50
2023-05-22T11:35:18.189Z,24.50
2023-05-22T11:37:47.278Z,24.50
2023-05-22T11:40:19.215Z,24.50
2023-05-22T11:42:48.362Z,24.50
2023-05-22T11:45:17.894Z,24.50
2023-05-22T11:47:46.578Z,24.50
2023-05-22T11:50:22.487Z,24.50
2023-05-22T11:52:59.382Z,24.50
2023-05-22T11:55:27.810Z,24.50
2023-05-22T11:57:57.264Z,24.50
2023-05-22T12:00:26.489Z,24.50
2023-05-22T12:02:55.745Z,24.50
2023-05-22T12:05:25.654Z,24.50
2023-05-22T12:07:54.428Z,24.50
2023-05-22T12:10:22.896Z,24.50
2023-05-22T12:12:51.323Z,24.50
2023-05-22T12:15:21.226Z,24.50
2023-05-22T12:17:49.685Z,24.50
2023-05-22T12:20:18.071Z,24.50
2023-05-22T12:22:47.847Z,24.50
2023-05-22T12:25:18.080Z,24.50
2023-05-22T12:27:47.239Z,24.50
2023-05-22T12:30:17.082Z,24.50
2023-05-22T12:32:50.015Z,24.50
2023-05-22T12:35:19.456Z,24.50
2023-05-22T12:37:53.133Z,24.50
2023-05-22T12:40:21.506Z,24.50
2023-05-22T12:42:50.063Z,24.60
2023-05-22T12:45:18.985Z,24.50
2023-05-22T12:47:47.443Z,24.50
2023-05-22T12:50:16.225Z,24.50
2023-05-22T12:52:44.763Z,24.50
2023-05-22T12:55:14.554Z,24.50
2023-05-22T12:57:42.980Z,24.50
2023-05-22T13:00:13.000Z,24.50
2023-05-22T13:02:41.603Z,24.50
2023-05-22T13:05:10.503Z,24.50
2023-05-22T13:07:38.871Z,24.50
2023-05-22T13:10:09.063Z,24.50
2023-05-22T13:12:38.874Z,24.50
2023-05-22T13:15:09.243Z,24.50
2023-05-22T13:17:37.662Z,24.50
2023-05-22T13:20:07.957Z,24.50
2023-05-22T13:22:36.322Z,24.50
2023-05-22T13:25:05.921Z,24.50
2023-05-22T13:27:34.515Z,24.50
2023-05-22T13:30:04.511Z,24.50
2023-05-22T13:32:35.057Z,24.50
2023-05-22T13:35:03.510Z,24.50
2023-05-22T13:37:32.032Z,24.50
2023-05-22T13:40:01.279Z,24.50
2023-05-22T13:42:29.824Z,24.50
2023-05-22T13:44:58.286Z,24.60
2023-05-22T13:47:28.110Z,24.60
2023-05-22T13:49:56.596Z,24.60
2023-05-22T13:52:25.114Z,24.60
2023-05-22T13:54:53.489Z,24.60
2023-05-22T13:57:21.892Z,24.70
2023-05-22T13:59:50.235Z,24.70
2023-05-22T14:02:20.357Z,24.70
2023-05-22T14:04:52.398Z,24.70
2023-05-22T14:07:20.871Z,24.70
2023-05-22T14:09:49.358Z,24.70
2023-05-22T14:12:17.843Z,24.70
2023-05-22T14:14:46.300Z,24.70
2023-05-22T14:17:14.763Z,24.70
2023-05-22T14:19:43.095Z,24.70
2023-05-22T14:22:12.778Z,24.70
2023-05-22T14:24:41.484Z,24.70
2023-05-22T14:27:10.080Z,24.70
2023-05-22T14:29:38.710Z,24.70
2023-05-22T14:32:07.392Z,24.70
2023-05-22T14:34:35.918Z,24.70
2023-05-22T14:37:04.272Z,24.80
2023-05-22T14:39:34.052Z,24.80
2023-05-22T14:42:02.471Z,24.80
2023-05-22T14:44:30.904Z,24.80
2023-05-22T14:46:59.523Z,24.80
2023-05-22T14:49:27.914Z,24.80
2023-05-22T14:51:56.316Z,24.70
2023-05-22T14:54:24.694Z,24.80
2023-05-22T14:56:54.416Z,24.70
2023-05-22T14:59:22.762Z,24.70
2023-05-22T15:01:52.153Z,24.70
2023-05-22T15:04:20.857Z,24.70
2023-05-22T15:06:49.438Z,24.70
2023-05-22T15:09:18.130Z,24.70
2023-05-22T15:11:49.069Z,24.70
2023-05-22T15:14:19.026Z,24.70
2023-05-22T15:16:47.546Z,24.70
2023-05-22T15:19:16.044Z,24.70
2023-05-22T15:21:44.569Z,24.80
2023-05-22T15:24:13.074Z,24.80
2023-05-22T15:26:41.467Z,24.80
2023-05-22T15:29:09.897Z,24.80
2023-05-22T15:31:40.103Z,24.90
2023-05-22T15:34:08.504Z,24.90
2023-05-22T15:36:37.528Z,24.90
2023-05-22T15:39:06.001Z,24.90
2023-05-22T15:41:34.391Z,24.90
2023-05-22T15:44:02.794Z,24.90
2023-05-22T15:46:31.135Z,24.90
2023-05-22T15:49:00.912Z,24.90
2023-05-22T15:51:29.959Z,24.80
2023-05-22T15:53:58.705Z,24.80
2023-05-22T15:56:27.063Z,24.80
2023-05-22T15:58:55.616Z,24.80
2023-05-22T16:01:24.069Z,24.80
2023-05-22T16:03:52.556Z,24.80
2023-05-22T16:06:23.281Z,24.80
2023-05-22T16:08:51.684Z,24.80
2023-05-22T16:11:20.198Z,24.80
2023-05-22T16:13:48.692Z,24.80
2023-05-22T16:16:17.520Z,24.80
2023-05-22T16:18:46.015Z,24.90
2023-05-22T16:21:14.428Z,24.80
2023-05-22T16:23:44.125Z,24.90
2023-05-22T16:26:12.505Z,24.80
2023-05-22T16:28:41.018Z,24.90
2023-05-22T16:31:09.409Z,24.90
2023-05-22T16:33:37.791Z,24.80
2023-05-22T16:36:06.883Z,24.80
2023-05-22T16:38:35.370Z,24.80
2023-05-22T16:41:05.407Z,24.80
2023-05-22T16:43:33.791Z,24.80
2023-05-22T16:46:02.381Z,24.70
2023-05-22T16:48:30.655Z,24.80
2023-05-22T16:50:59.008Z,24.80
2023-05-22T16:53:27.407Z,24.80
2023-05-22T16:55:55.823Z,24.80
2023-05-22T16:58:25.529Z,24.90
2023-05-22T17:00:54.203Z,24.90
2023-05-22T17:03:22.738Z,24.90
2023-05-22T17:05:51.369Z,24.90
2023-05-22T17:08:19.721Z,24.90
2023-05-22T17:10:48.112Z,24.90
2023-05-22T17:13:20.739Z,24.90
2023-05-22T17:15:51.346Z,24.90
2023-05-22T17:18:21.284Z,24.90
2023-05-22T17:20:50.570Z,24.90
2023-05-22T17:23:19.346Z,24.90
2023-05-22T17:25:47.927Z,24.90
2023-05-22T17:28:16.692Z,24.90
2023-05-22T17:30:46.308Z,24.90
2023-05-22T17:33:16.118Z,25.00
2023-05-22T17:35:44.554Z,25.00
2023-05-22T17:38:12.840Z,25.00
2023-05-22T17:40:45.366Z,24.90
2023-05-22T17:43:15.035Z,24.90
2023-05-22T17:45:44.443Z,24.90
2023-05-22T17:48:14.685Z,24.90
2023-05-22T17:50:44.717Z,24.90
2023-05-22T17:53:13.492Z,24.90
2023-05-22T17:55:41.831Z,25.00
2023-05-22T17:58:10.373Z,25.00
2023-05-22T18:00:38.855Z,25.00
2023-05-22T18:03:08.059Z,25.10
2023-05-22T18:05:36.794Z,25.10
2023-05-22T18:08:06.544Z,25.10
2023-05-22T18:10:35.005Z,25.10
2023-05-22T18:13:03.353Z,25.10
2023-05-22T18:15:32.818Z,25.10
2023-05-22T18:18:01.373Z,25.10
2023-05-22T18:20:29.696Z,25.20
2023-05-22T18:22:58.082Z,25.20
2023-05-22T18:25:27.916Z,25.20
2023-05-22T18:27:56.250Z,25.20
2023-05-22T18:30:24.569Z,25.30
2023-05-22T18:32:52.987Z,25.30
2023-05-22T18:35:21.429Z,25.30
2023-05-22T18:37:49.759Z,25.30
2023-05-22T18:40:18.670Z,25.30
2023-05-22T18:42:48.378Z,25.30
2023-05-22T18:45:16.764Z,25.30
2023-05-22T18:47:45.086Z,25.30
2023-05-22T18:50:13.796Z,25.30
2023-05-22T18:52:42.167Z,25.30
2023-05-22T18:55:12.249Z,25.30
2023-05-22T18:57:40.826Z,25.20
2023-05-22T19:00:12.196Z,25.20
2023-05-22T19:02:40.586Z,25.10
2023-05-22T19:05:10.192Z,25.20
2023-05-22T19:07:38.528Z,25.10
2023-05-22T19:10:08.827Z,25.10
2023-05-22T19:12:37.187Z,25.10
2023-05-22T19:15:07.926Z,25.10
2023-05-22T19:17:37.708Z,25.10
2023-05-22T19:20:09.138Z,25.10
2023-05-22T19:22:37.725Z,25.20
2023-05-22T19:25:06.997Z,25.20
2023-05-22T19:27:36.730Z,25.10
2023-05-22T19:30:09.049Z,25.10
2023-05-22T19:32:38.846Z,25.10
2023-05-22T19:35:08.676Z,25.20
2023-05-22T19:37:37.034Z,25.20
2023-05-22T19:40:07.066Z,25.20
2023-05-22T19:42:38.555Z,25.20
2023-05-22T19:45:08.665Z,25.20
2023-05-22T19:47:38.474Z,25.20
2023-05-22T19:50:09.248Z,25.20
2023-05-22T19:52:37.813Z,25.20
2023-05-22T19:55:07.683Z,25.10
2023-05-22T19:57:36.010Z,25.10
2023-05-22T20:00:07.112Z,25.10
2023-05-22T20:02:35.578Z,25.10
2023-05-22T20:05:09.433Z,25.10
2023-05-22T20:07:37.942Z,25.10
2023-05-22T20:10:07.782Z,25.10
2023-05-22T20:12:36.333Z,25.10
2023-05-22T20:15:06.823Z,25.10
2023-05-22T20:17:36.119Z,25.10
2023-05-22T20:20:09.583Z,25.10
2023-05-22T20:22:38.449Z,25.10
2023-05-22T20:25:08.703Z,25.00
2023-05-22T20:27:37.328Z,25.00
2023-05-22T20:30:07.695Z,25.00
2023-05-22T20:32:36.179Z,25.00
2023-05-22T20:35:07.549Z,25.00
2023-05-22T20:37:35.870Z,25.00
2023-05-22T20:40:05.054Z,25.00
2023-05-22T20:42:33.468Z,25.00
2023-05-22T20:45:01.761Z,25.00
2023-05-22T20:47:30.142Z,25.00
2023-05-22T20:49:58.571Z,25.00
2023-05-22T20:52:30.324Z,25.00
2023-05-22T20:54:58.867Z,25.00
2023-05-22T20:57:27.203Z,25.00
2023-05-22T20:59:56.082Z,25.10
2023-05-22T21:02:24.422Z,25.10
2023-05-22T21:04:52.853Z,25.10
2023-05-22T21:07:21.292Z,25.10
2023-05-22T21:09:50.989Z,25.10
2023-05-22T21:12:19.409Z,25.10
2023-05-22T21:14:47.722Z,25.10
2023-05-22T21:17:16.161Z,25.00
2023-05-22T21:19:44.682Z,25.00
2023-05-22T21:22:13.063Z,25.00
2023-05-22T21:24:41.417Z,25.00
2023-05-22T21:27:11.155Z,25.00
2023-05-22T21:29:39.548Z,25.00
2023-05-22T21:32:08.886Z,25.00
2023-05-22T21:34:37.481Z,24.90
2023-05-22T21:37:06.291Z,25.00
2023-05-22T21:39:34.625Z,24.90
2023-05-22T21:42:04.251Z,24.90
2023-05-22T21:44:34.189Z,24.90
2023-05-22T21:47:02.791Z,24.90
2023-05-22T21:49:31.176Z,24.90
2023-05-22T21:51:59.616Z,25.00
2023-05-22T21:54:27.978Z,25.00
2023-05-22T21:56:56.405Z,25.00
2023-05-22T21:59:24.795Z,24.90
2023-05-22T22:01:54.729Z,24.90
2023-05-22T22:04:23.806Z,24.90
2023-05-22T22:06:52.476Z,24.90
2023-05-22T22:09:20.838Z,24.90
2023-05-22T22:11:49.298Z,24.90
2023-05-22T22:14:17.607Z,24.90
2023-05-22T22:16:46.738Z,24.90
2023-05-22T22:19:16.706Z,24.90
2023-05-22T22:21:45.482Z,24.90
2023-05-22T22:24:15.454Z,24.90
2023-05-22T22:26:44.224Z,24.80
2023-05-22T22:29:13.100Z,24.80
2023-05-22T22:31:41.459Z,24.80
2023-05-22T22:34:09.868Z,24.80
2023-05-22T22:36:40.067Z,24.80
2023-05-22T22:39:08.528Z,24.80
2023-05-22T22:41:36.769Z,24.80
2023-05-22T22:44:05.325Z,24.80
2023-05-22T22:46:33.782Z,24.80
2023-05-22T22:49:02.256Z,24.80
2023-05-22T22:51:31.571Z,24.80
2023-05-22T22:54:01.342Z,24.80
2023-05-22T22:56:29.884Z,24.80
2023-05-22T22:58:58.258Z,24.80
2023-05-22T23:17:45.797Z,24.70
2023-05-22T23:20:14.313Z,24.70
2023-05-22T23:22:42.818Z,24.70
2023-05-22T23:25:11.728Z,24.70
2023-05-22T23:27:40.272Z,24.70
